createdAt,value
2017-08-28T00:00:30.630Z,23.92
2017-08-28T00:01:40.964Z,23.84
2017-08-28T00:02:51.317Z,23.85
2017-08-28T00:04:01.334Z,23.85
2017-08-28T00:05:11.721Z,23.87
2017-08-28T00:06:22.068Z,23.93
2017-08-28T00:07:32.403Z,23.92
2017-08-28T00:08:42.799Z,23.9
2017-08-28T00:09:53.138Z,23.89
2017-08-28T00:11:03.533Z,23.87
2017-08-28T00:12:13.560Z,23.89
2017-08-28T00:13:23.900Z,23.89
2017-08-28T00:14:34.236Z,23.85
2017-08-28T00:15:44.590Z,23.82
2017-08-28T00:16:54.992Z,23.75
2017-08-28T00:18:05.334Z,23.78
2017-08-28T00:19:15.681Z,23.81
2017-08-28T00:20:25.709Z,23.84
2017-08-28T00:21:35.736Z,23.78
2017-08-28T00:22:46.421Z,23.74
2017-08-28T00:23:56.775Z,23.81
2017-08-28T00:25:07.129Z,23.79
2017-08-28T00:26:17.476Z,23.78
2017-08-28T00:27:27.819Z,23.87
2017-08-28T00:28:37.902Z,23.87
2017-08-28T00:29:47.978Z,23.89
2017-08-28T00:30:58.023Z,23.84
2017-08-28T00:32:08.371Z,23.85
2017-08-28T00:33:18.708Z,23.89
2017-08-28T00:34:29.130Z,23.9
2017-08-28T00:35:40.566Z,23.89
2017-08-28T00:36:50.591Z,23.89
2017-08-28T00:38:00.626Z,23.9
2017-08-28T00:39:10.991Z,23.92
2017-08-28T00:40:21.432Z,23.9
2017-08-28T00:41:31.778Z,23.87
2017-08-28T00:42:42.122Z,23.82
2017-08-28T00:43:52.468Z,23.89
2017-08-28T00:45:02.495Z,23.96
2017-08-28T00:46:12.882Z,23.97
2017-08-28T00:47:23.265Z,23.96
2017-08-28T00:48:33.625Z,23.96
2017-08-28T00:49:43.966Z,23.92
2017-08-28T00:50:54.304Z,23.81
2017-08-28T00:52:04.394Z,23.84
2017-08-28T00:53:14.758Z,23.82
2017-08-28T00:54:25.109Z,23.84
2017-08-28T00:55:35.483Z,23.78
2017-08-28T00:56:45.536Z,23.79
2017-08-28T00:57:55.936Z,23.71
2017-08-28T00:59:06.281Z,23.66
2017-08-28T01:00:16.638Z,23.72
2017-08-28T01:01:27.002Z,23.64
2017-08-28T01:02:37.342Z,23.6
2017-08-28T01:03:47.428Z,23.6
2017-08-28T01:04:58.960Z,23.56
2017-08-28T01:06:09.296Z,23.57
2017-08-28T01:07:19.020Z,23.62
2017-08-28T01:08:29.361Z,23.59
2017-08-28T01:09:39.444Z,23.47
2017-08-28T01:10:49.465Z,23.44
2017-08-28T01:11:59.809Z,23.45
2017-08-28T01:13:09.843Z,23.48
2017-08-28T01:14:19.239Z,23.4
2017-08-28T01:15:29.306Z,23.34
2017-08-28T01:16:39.658Z,23.34
2017-08-28T01:17:49.707Z,23.25
2017-08-28T01:19:00.032Z,23.22
2017-08-28T01:20:10.383Z,23.25
2017-08-28T01:21:20.774Z,23.22
2017-08-28T01:22:33.185Z,23.18
2017-08-28T01:23:43.217Z,23.25
2017-08-28T01:24:53.546Z,23.19
2017-08-28T01:26:03.280Z,23.16
2017-08-28T01:27:13.672Z,23.21
2017-08-28T01:28:23.693Z,23.16
2017-08-28T01:29:34.029Z,23.15
2017-08-28T01:30:44.366Z,23.21
2017-08-28T01:31:54.726Z,23.28
2017-08-28T01:33:05.123Z,23.26
2017-08-28T01:34:15.462Z,23.22
2017-08-28T01:35:25.576Z,23.29
2017-08-28T01:36:35.916Z,23.26
2017-08-28T01:37:46.249Z,23.26
2017-08-28T01:38:56.646Z,23.29
2017-08-28T01:40:06.674Z,23.28
2017-08-28T01:41:17.025Z,23.28
2017-08-28T01:42:27.373Z,23.38
2017-08-28T01:43:37.714Z,23.34
2017-08-28T01:44:48.115Z,23.28
2017-08-28T01:45:58.479Z,23.25
2017-08-28T01:47:08.826Z,23.29
2017-08-28T01:48:19.150Z,23.26
2017-08-28T01:49:29.498Z,23.29
2017-08-28T01:50:39.874Z,23.32
2017-08-28T01:51:49.894Z,23.26
2017-08-28T01:52:59.947Z,23.37
2017-08-28T01:54:10.296Z,23.35
2017-08-28T01:55:20.362Z,23.32
2017-08-28T01:56:30.754Z,23.26
2017-08-28T01:57:43.180Z,23.22
2017-08-28T01:58:54.586Z,23.22
2017-08-28T02:00:04.944Z,23.22
2017-08-28T02:01:14.994Z,23.18
2017-08-28T02:02:25.397Z,23.16
2017-08-28T02:03:35.753Z,23.14
2017-08-28T02:04:46.122Z,23.15
2017-08-28T02:05:56.488Z,23.15
2017-08-28T02:07:06.849Z,23.1
2017-08-28T02:08:17.249Z,23.14
2017-08-28T02:09:27.287Z,23.18
2017-08-28T02:10:36.988Z,23.19
2017-08-28T02:11:48.025Z,23.18
2017-08-28T02:12:58.979Z,23.18
2017-08-28T02:14:09.361Z,23.21
2017-08-28T02:15:19.067Z,23.18
2017-08-28T02:16:29.400Z,23.18
2017-08-28T02:17:39.755Z,23.12
2017-08-28T02:18:50.110Z,23.18
2017-08-28T02:20:00.524Z,23.16
2017-08-28T02:21:10.730Z,23.16
2017-08-28T02:22:21.190Z,23.18
2017-08-28T02:23:31.226Z,23.21
2017-08-28T02:24:41.571Z,23.14
2017-08-28T02:25:51.634Z,23.09
2017-08-28T02:27:01.974Z,23.19
2017-08-28T02:28:12.316Z,23.14
2017-08-28T02:29:22.033Z,23.15
2017-08-28T02:30:32.080Z,23.16
2017-08-28T02:31:42.161Z,23.19
2017-08-28T02:32:52.529Z,23.16
2017-08-28T02:34:02.876Z,23.18
2017-08-28T02:35:12.905Z,23.15
2017-08-28T02:36:23.247Z,23.15
2017-08-28T02:37:33.647Z,23.16
2017-08-28T02:38:43.671Z,23.14
2017-08-28T02:39:53.380Z,23.1
2017-08-28T02:41:03.446Z,23.1
2017-08-28T02:42:13.790Z,23.07
2017-08-28T02:43:24.162Z,23.04
2017-08-28T02:44:34.508Z,23.06
2017-08-28T02:45:44.568Z,23.12
2017-08-28T02:46:54.600Z,23.07
2017-08-28T02:48:06.862Z,23
2017-08-28T02:49:17.262Z,23.09
2017-08-28T02:50:27.295Z,23.03
2017-08-28T02:51:37.652Z,23.03
2017-08-28T02:52:48.034Z,23.01
2017-08-28T02:53:58.439Z,23.03
2017-08-28T02:55:08.828Z,22.97
2017-08-28T02:56:19.168Z,22.97
2017-08-28T02:57:29.513Z,22.97
2017-08-28T02:58:39.852Z,22.91
2017-08-28T02:59:50.193Z,23.03
2017-08-28T03:01:00.296Z,22.91
2017-08-28T03:33:03.331Z,20.56
2017-08-28T03:34:13.657Z,20.49
2017-08-28T03:35:23.723Z,20.46
2017-08-28T03:36:34.059Z,20.44
2017-08-28T03:37:44.407Z,20.49
2017-08-28T03:38:54.798Z,20.44
2017-08-28T03:40:05.126Z,20.58
2017-08-28T03:41:15.466Z,20.75
2017-08-28T03:42:25.192Z,20.78
2017-08-28T03:43:35.196Z,20.88
2017-08-28T03:44:45.581Z,20.93
2017-08-28T03:45:55.624Z,21.06
2017-08-28T03:47:05.962Z,21.19
2017-08-28T03:48:16.307Z,21.36
2017-08-28T03:49:26.674Z,21.43
2017-08-28T03:50:36.757Z,21.53
2017-08-28T03:51:46.778Z,21.51
2017-08-28T03:52:57.127Z,21.62
2017-08-28T03:54:07.467Z,21.73
2017-08-28T03:55:17.823Z,21.76
2017-08-28T03:56:28.206Z,21.78
2017-08-28T03:57:38.553Z,21.78
2017-08-28T03:58:48.909Z,21.86
2017-08-28T03:59:59.251Z,21.93
2017-08-28T04:01:09.607Z,21.97
2017-08-28T04:02:20.048Z,21.99
2017-08-28T04:03:30.384Z,21.99
2017-08-28T04:04:40.732Z,22.08
2017-08-28T04:05:51.069Z,22.18
2017-08-28T04:07:01.137Z,22.23
2017-08-28T04:08:11.537Z,22.26
2017-08-28T04:09:23.171Z,22.23
2017-08-28T04:10:33.569Z,22.31
2017-08-28T04:11:43.919Z,22.3
2017-08-28T04:12:54.260Z,22.33
2017-08-28T04:14:04.677Z,22.42
2017-08-28T04:15:15.008Z,22.44
2017-08-28T04:16:25.347Z,22.41
2017-08-28T04:17:35.706Z,22.36
2017-08-28T04:18:46.041Z,22.51
2017-08-28T04:19:56.429Z,22.51
2017-08-28T04:21:06.772Z,22.51
2017-08-28T04:22:18.138Z,22.57
2017-08-28T04:23:28.472Z,22.63
2017-08-28T04:24:39.154Z,22.69
2017-08-28T04:25:49.533Z,22.67
2017-08-28T04:26:59.852Z,22.73
2017-08-28T04:28:10.195Z,22.64
2017-08-28T04:29:20.556Z,22.7
2017-08-28T04:30:30.911Z,22.64
2017-08-28T04:31:40.971Z,22.67
2017-08-28T04:32:51.321Z,22.7
2017-08-28T04:34:01.655Z,22.82
2017-08-28T04:35:12.003Z,22.84
2017-08-28T04:36:22.329Z,22.86
2017-08-28T04:37:32.401Z,22.88
2017-08-28T04:38:42.485Z,22.89
2017-08-28T04:39:52.819Z,22.94
2017-08-28T04:41:02.847Z,22.88
2017-08-28T04:42:12.879Z,22.97
2017-08-28T04:43:22.892Z,23.03
2017-08-28T04:44:33.339Z,23.07
2017-08-28T04:45:43.679Z,23.07
2017-08-28T04:46:53.728Z,23.15
2017-08-28T04:48:03.423Z,23.18
2017-08-28T04:49:13.769Z,23.15
2017-08-28T04:50:24.163Z,23.14
2017-08-28T04:51:33.883Z,23.22
2017-08-28T04:52:44.221Z,23.25
2017-08-28T04:53:54.568Z,23.21
2017-08-28T04:55:04.587Z,23.26
2017-08-28T04:56:14.337Z,23.28
2017-08-28T04:57:24.052Z,23.19
2017-08-28T04:58:34.402Z,23.24
2017-08-28T04:59:44.740Z,23.28
2017-08-28T05:00:54.461Z,23.26
2017-08-28T05:02:04.856Z,23.34
2017-08-28T05:03:15.190Z,23.32
2017-08-28T05:04:25.208Z,23.35
2017-08-28T05:05:35.284Z,23.52
2017-08-28T05:06:45.316Z,23.47
2017-08-28T05:07:55.711Z,23.59
2017-08-28T05:09:05.752Z,23.71
2017-08-28T05:10:15.458Z,23.67
2017-08-28T05:11:25.820Z,23.77
2017-08-28T05:12:36.153Z,23.81
2017-08-28T05:13:46.562Z,23.84
2017-08-28T05:14:56.919Z,23.94
2017-08-28T05:16:07.267Z,23.94
2017-08-28T05:17:17.623Z,23.99
2017-08-28T05:18:28.000Z,23.97
2017-08-28T05:19:38.090Z,23.93
2017-08-28T05:20:48.484Z,23.96
2017-08-28T05:21:58.520Z,24.11
2017-08-28T05:23:08.227Z,24.12
2017-08-28T05:24:18.277Z,24.08
2017-08-28T05:25:28.353Z,24.14
2017-08-28T05:26:38.374Z,24.19
2017-08-28T05:27:48.738Z,24.42
2017-08-28T05:28:59.125Z,24.58
2017-08-28T05:30:09.188Z,24.45
2017-08-28T05:31:19.595Z,24.45
2017-08-28T05:32:29.948Z,24.37
2017-08-28T05:33:40.299Z,24.46
2017-08-28T05:34:50.649Z,24.34
2017-08-28T05:36:00.671Z,24.4
2017-08-28T05:37:10.746Z,24.4
2017-08-28T05:38:21.098Z,24.55
2017-08-28T05:39:31.444Z,24.56
2017-08-28T05:40:41.818Z,24.66
2017-08-28T05:41:51.854Z,24.75
2017-08-28T05:43:01.936Z,24.71
2017-08-28T05:44:12.294Z,24.78
2017-08-28T05:45:22.684Z,24.85
2017-08-28T05:46:33.031Z,24.87
2017-08-28T05:47:43.067Z,24.78
2017-08-28T05:48:53.474Z,24.85
2017-08-28T05:50:03.812Z,24.89
2017-08-28T05:51:14.159Z,24.86
2017-08-28T05:52:24.179Z,24.86
2017-08-28T05:53:34.533Z,24.77
2017-08-28T05:54:44.917Z,24.77
2017-08-28T05:55:54.941Z,24.75
2017-08-28T05:57:05.332Z,24.74
2017-08-28T05:58:15.679Z,24.74
2017-08-28T05:59:26.017Z,24.71
2017-08-28T06:00:36.417Z,24.69
2017-08-28T06:01:46.445Z,24.75
2017-08-28T06:02:56.825Z,24.94
2017-08-28T06:04:07.174Z,25.12
2017-08-28T06:05:17.210Z,25.44
2017-08-28T06:06:27.573Z,25.76
2017-08-28T06:07:37.617Z,26.06
2017-08-28T06:08:47.978Z,26.27
2017-08-28T06:09:58.011Z,26.54
2017-08-28T06:11:08.371Z,26.68
2017-08-28T06:12:18.769Z,26.91
2017-08-28T06:13:28.821Z,27
2017-08-28T06:14:39.159Z,27.04
2017-08-28T06:15:49.553Z,27.18
2017-08-28T06:16:59.948Z,27.31
2017-08-28T06:18:09.985Z,27.42
2017-08-28T06:19:20.331Z,27.31
2017-08-28T06:20:30.679Z,27.26
2017-08-28T06:21:41.035Z,27.16
2017-08-28T06:22:51.420Z,27.27
2017-08-28T06:24:01.780Z,27.28
2017-08-28T06:25:11.825Z,27.36
2017-08-28T06:26:22.168Z,27.37
2017-08-28T06:27:32.209Z,27.48
2017-08-28T06:28:42.615Z,27.53
2017-08-28T06:29:52.963Z,27.45
2017-08-28T06:31:03.008Z,27.42
2017-08-28T06:32:13.041Z,27.43
2017-08-28T06:33:23.379Z,27.31
2017-08-28T06:34:33.457Z,27.3
2017-08-28T06:35:43.797Z,27.18
2017-08-28T06:36:54.147Z,27.15
2017-08-28T06:38:04.486Z,27.21
2017-08-28T06:39:14.836Z,27.28
2017-08-28T06:40:24.917Z,27.45
2017-08-28T06:41:34.959Z,27.57
2017-08-28T06:42:45.314Z,27.76
2017-08-28T06:43:55.347Z,27.83
2017-08-28T06:45:05.698Z,27.99
2017-08-28T06:46:15.798Z,28.14
2017-08-28T06:47:25.832Z,28.18
2017-08-28T06:48:35.857Z,28.17
2017-08-28T06:49:46.207Z,28.31
2017-08-28T06:50:56.561Z,28.33
2017-08-28T06:52:06.675Z,28.39
2017-08-28T06:53:17.013Z,28.39
2017-08-28T06:54:27.363Z,28.35
2017-08-28T06:55:37.395Z,28.31
2017-08-28T06:56:47.727Z,28.28
2017-08-28T06:57:57.801Z,28.27
2017-08-28T06:59:08.152Z,28.31
2017-08-28T07:00:18.166Z,28.38
2017-08-28T07:01:28.204Z,28.42
2017-08-28T07:02:38.588Z,28.53
2017-08-28T07:03:48.995Z,28.57
2017-08-28T07:04:59.362Z,28.54
2017-08-28T07:06:09.737Z,28.48
2017-08-28T07:07:19.760Z,28.51
2017-08-28T07:08:30.097Z,28.48
2017-08-28T07:09:40.508Z,28.45
2017-08-28T07:10:50.853Z,28.42
2017-08-28T07:12:01.199Z,28.42
2017-08-28T07:13:11.579Z,28.48
2017-08-28T07:14:21.285Z,28.53
2017-08-28T07:15:31.740Z,28.53
2017-08-28T07:16:42.073Z,28.55
2017-08-28T07:17:51.771Z,28.58
2017-08-28T07:19:02.126Z,28.68
2017-08-28T07:20:12.477Z,28.75
2017-08-28T07:21:22.554Z,28.64
2017-08-28T07:22:32.891Z,28.72
2017-08-28T07:23:42.912Z,28.67
2017-08-28T07:24:52.970Z,28.63
2017-08-28T07:26:02.989Z,28.8
2017-08-28T07:27:13.379Z,28.88
2017-08-28T07:28:23.763Z,28.98
2017-08-28T07:29:34.109Z,29.26
2017-08-28T07:30:44.464Z,29.52
2017-08-28T07:31:54.815Z,29.65
2017-08-28T07:33:05.214Z,29.79
2017-08-28T07:34:15.579Z,29.81
2017-08-28T07:35:25.606Z,29.61
2017-08-28T07:36:36.219Z,29.57
2017-08-28T07:37:46.574Z,29.38
2017-08-28T07:38:56.969Z,29.24
2017-08-28T07:40:06.991Z,28.95
2017-08-28T07:41:17.345Z,28.73
2017-08-28T07:42:27.685Z,28.67
2017-08-28T07:43:38.044Z,28.48
2017-08-28T07:44:48.126Z,28.35
2017-08-28T07:45:57.828Z,28.35
2017-08-28T07:47:10.078Z,28.17
2017-08-28T07:48:20.417Z,28.18
2017-08-28T07:49:30.766Z,28.08
2017-08-28T07:50:41.164Z,27.99
2017-08-28T07:51:51.561Z,27.93
2017-08-28T07:53:01.598Z,27.94
2017-08-28T07:54:11.955Z,27.83
2017-08-28T07:55:22.301Z,27.64
2017-08-28T07:56:32.700Z,27.49
2017-08-28T07:57:42.719Z,27.48
2017-08-28T07:58:53.076Z,27.51
2017-08-28T08:00:03.413Z,27.64
2017-08-28T08:01:13.444Z,27.76
2017-08-28T08:02:23.526Z,27.91
2017-08-28T08:03:33.892Z,27.89
2017-08-28T08:04:44.241Z,27.89
2017-08-28T08:05:54.597Z,27.94
2017-08-28T08:07:04.946Z,27.96
2017-08-28T08:08:15.024Z,27.94
2017-08-28T08:09:25.067Z,28.05
2017-08-28T08:10:35.104Z,28.12
2017-08-28T08:11:45.443Z,28.12
2017-08-28T08:12:55.778Z,28.11
2017-08-28T08:14:06.223Z,27.99
2017-08-28T08:15:16.256Z,27.99
2017-08-28T08:16:26.285Z,28.02
2017-08-28T08:17:36.313Z,28.02
2017-08-28T08:18:46.671Z,28.08
2017-08-28T08:19:57.056Z,28.01
2017-08-28T08:21:07.401Z,28.03
2017-08-28T08:22:17.102Z,28.06
2017-08-28T08:23:27.449Z,28.03
2017-08-28T08:24:37.805Z,28.02
2017-08-28T08:25:47.886Z,28.03
2017-08-28T08:26:58.235Z,28.01
2017-08-28T08:28:08.597Z,27.99
2017-08-28T08:29:19.140Z,27.99
2017-08-28T08:30:29.482Z,28.02
2017-08-28T08:31:39.876Z,27.99
2017-08-28T08:32:50.222Z,27.93
2017-08-28T08:34:00.580Z,27.96
2017-08-28T08:35:10.601Z,28.01
2017-08-28T08:36:20.947Z,28.01
2017-08-28T08:37:31.047Z,27.99
2017-08-28T08:38:41.403Z,28.09
2017-08-28T08:39:51.804Z,28.12
2017-08-28T08:41:02.178Z,28.2
2017-08-28T08:42:12.554Z,28.16
2017-08-28T08:43:22.991Z,28.3
2017-08-28T08:44:33.382Z,28.3
2017-08-28T08:45:43.766Z,28.33
2017-08-28T08:46:54.144Z,28.33
2017-08-28T08:48:04.203Z,28.41
2017-08-28T08:49:14.629Z,28.45
2017-08-28T08:50:24.677Z,28.45
2017-08-28T08:51:35.051Z,28.51
2017-08-28T08:52:45.512Z,28.6
2017-08-28T08:53:55.878Z,28.68
2017-08-28T08:55:06.297Z,28.65
2017-08-28T08:56:16.961Z,28.7
2017-08-28T08:57:27.366Z,28.82
2017-08-28T08:58:37.763Z,28.8
2017-08-28T08:59:47.193Z,28.83
2017-08-28T09:00:57.628Z,28.94
2017-08-28T09:02:07.710Z,28.88
2017-08-28T09:03:18.095Z,28.95
2017-08-28T09:04:28.160Z,29.03
2017-08-28T09:05:38.544Z,29.05
2017-08-28T09:06:48.987Z,29.13
2017-08-28T09:07:59.650Z,29.24
2017-08-28T09:09:09.734Z,29.35
2017-08-28T09:10:20.135Z,29.32
2017-08-28T09:11:30.498Z,29.3
2017-08-28T09:12:40.281Z,29.48
2017-08-28T09:13:50.673Z,29.45
2017-08-28T09:15:00.978Z,29.55
2017-08-28T09:16:11.353Z,29.4
2017-08-28T09:17:21.711Z,29.42
2017-08-28T09:18:31.840Z,29.48
2017-08-28T09:19:42.229Z,29.33
2017-08-28T09:20:52.614Z,29.33
2017-08-28T09:22:02.973Z,29.33
2017-08-28T09:23:13.031Z,29.39
2017-08-28T09:24:23.142Z,29.52
2017-08-28T09:25:33.526Z,29.54
2017-08-28T09:26:43.600Z,29.63
2017-08-28T09:27:53.654Z,30.04
2017-08-28T09:29:03.688Z,30.26
2017-08-28T09:30:14.100Z,30.49
2017-08-28T09:31:24.468Z,30.67
2017-08-28T09:32:34.843Z,30.7
2017-08-28T09:33:45.212Z,30.79
2017-08-28T09:34:55.585Z,30.78
2017-08-28T09:36:06.016Z,30.99
2017-08-28T09:37:16.391Z,31.15
2017-08-28T09:38:26.752Z,31.44
2017-08-28T09:39:36.842Z,31.45
2017-08-28T09:40:47.191Z,31.6
2017-08-28T09:41:57.270Z,31.77
2017-08-28T09:43:07.614Z,31.86
2017-08-28T09:44:17.985Z,31.93
2017-08-28T09:45:28.030Z,31.77
2017-08-28T09:46:38.380Z,31.9
2017-08-28T09:47:48.780Z,32.06
2017-08-28T09:48:59.138Z,32.31
2017-08-28T09:50:09.500Z,32.47
2017-08-28T09:51:19.851Z,33.03
2017-08-28T09:52:29.576Z,33.39
2017-08-28T09:53:40.255Z,33.75
2017-08-28T09:54:50.302Z,34
2017-08-28T09:56:00.657Z,34.05
2017-08-28T09:57:11.003Z,33.87
2017-08-28T09:58:21.379Z,33.73
2017-08-28T09:59:31.485Z,33.4
2017-08-28T10:00:41.536Z,33.16
2017-08-28T10:01:51.268Z,32.9
2017-08-28T10:03:01.644Z,32.91
2017-08-28T10:04:12.006Z,32.99
2017-08-28T10:05:22.437Z,33.08
2017-08-28T10:06:32.810Z,33.11
2017-08-28T10:07:42.847Z,33.17
2017-08-28T10:08:53.210Z,32.98
2017-08-28T10:10:03.567Z,33.02
2017-08-28T10:11:13.979Z,33.13
2017-08-28T10:12:24.020Z,33.12
2017-08-28T10:13:34.361Z,33.21
2017-08-28T10:14:44.720Z,33.23
2017-08-28T10:15:55.085Z,33.41
2017-08-28T10:17:05.507Z,33.34
2017-08-28T10:18:15.868Z,33.41
2017-08-28T10:19:26.221Z,33.31
2017-08-28T10:20:36.258Z,33.2
2017-08-28T10:21:46.620Z,32.98
2017-08-28T10:22:57.022Z,32.99
2017-08-28T10:24:07.377Z,32.87
2017-08-28T10:25:17.093Z,32.87
2017-08-28T10:26:27.472Z,32.87
2017-08-28T10:27:37.849Z,32.84
2017-08-28T10:28:48.248Z,32.65
2017-08-28T10:29:58.613Z,32.59
2017-08-28T10:31:08.956Z,32.46
2017-08-28T10:32:19.016Z,32.39
2017-08-28T10:33:28.747Z,32.32
2017-08-28T10:34:38.789Z,32.3
2017-08-28T10:35:49.191Z,32.23
2017-08-28T10:36:59.240Z,32.5
2017-08-28T10:38:09.618Z,32.62
2017-08-28T10:39:19.651Z,32.84
2017-08-28T10:40:30.012Z,33.17
2017-08-28T10:41:39.784Z,33.4
2017-08-28T10:42:50.150Z,33.61
2017-08-28T10:44:00.511Z,33.77
2017-08-28T10:45:10.874Z,34.02
2017-08-28T10:46:21.967Z,34.1
2017-08-28T10:47:32.367Z,34.34
2017-08-28T10:48:42.720Z,34.4
2017-08-28T10:49:53.076Z,34.48
2017-08-28T10:51:03.420Z,34.66
2017-08-28T10:52:13.788Z,34.78
2017-08-28T10:53:24.188Z,34.74
2017-08-28T10:54:34.538Z,34.75
2017-08-28T10:55:44.571Z,34.4
2017-08-28T10:56:54.920Z,34.18
2017-08-28T10:58:04.942Z,33.85
2017-08-28T10:59:17.651Z,33.5
2017-08-28T11:00:28.005Z,33.23
2017-08-28T11:01:38.373Z,33.05
2017-08-28T11:02:48.435Z,33.05
2017-08-28T11:03:58.803Z,33.05
2017-08-28T11:05:09.194Z,33.11
2017-08-28T11:06:19.550Z,33.17
2017-08-28T11:07:29.906Z,33.09
2017-08-28T11:08:39.970Z,33.05
2017-08-28T11:09:50.346Z,32.99
2017-08-28T11:11:00.735Z,32.94
2017-08-28T11:12:11.086Z,32.9
2017-08-28T11:13:22.833Z,32.94
2017-08-28T11:14:33.207Z,32.89
2017-08-28T11:15:43.556Z,32.75
2017-08-28T11:16:53.691Z,32.68
2017-08-28T11:18:03.752Z,32.62
2017-08-28T11:19:13.797Z,32.64
2017-08-28T11:20:24.155Z,32.57
2017-08-28T11:21:34.188Z,32.71
2017-08-28T11:22:44.291Z,32.81
2017-08-28T11:23:54.662Z,32.89
2017-08-28T11:25:05.044Z,33.2
2017-08-28T11:26:15.426Z,33.4
2017-08-28T11:27:25.459Z,33.37
2017-08-28T11:28:35.891Z,33.5
2017-08-28T11:29:46.250Z,33.66
2017-08-28T11:30:56.600Z,33.62
2017-08-28T11:32:06.636Z,33.4
2017-08-28T11:33:16.981Z,33.21
2017-08-28T11:34:27.408Z,33.18
2017-08-28T11:35:37.793Z,33.12
2017-08-28T11:36:48.146Z,32.9
2017-08-28T11:37:59.189Z,32.56
2017-08-28T11:39:09.559Z,32.5
2017-08-28T11:40:19.641Z,32.2
2017-08-28T11:41:29.999Z,32.16
2017-08-28T11:42:40.362Z,32.13
2017-08-28T11:43:50.751Z,31.8
2017-08-28T11:45:00.799Z,31.65
2017-08-28T11:46:11.206Z,31.81
2017-08-28T11:47:21.575Z,31.88
2017-08-28T11:48:31.627Z,31.87
2017-08-28T11:49:41.994Z,31.93
2017-08-28T11:50:52.350Z,32
2017-08-28T11:52:02.445Z,32.03
2017-08-28T11:53:12.488Z,32.03
2017-08-28T11:54:22.843Z,31.98
2017-08-28T11:55:32.874Z,32.08
2017-08-28T11:56:43.230Z,32.1
2017-08-28T11:57:53.607Z,32.15
2017-08-28T11:59:04.464Z,32.16
2017-08-28T12:00:16.078Z,32.24
2017-08-28T12:01:28.685Z,32.32
2017-08-28T12:02:39.294Z,32.31
2017-08-28T12:03:49.677Z,32.24
2017-08-28T12:04:59.742Z,32.38
2017-08-28T12:06:10.097Z,32.53
2017-08-28T12:07:20.145Z,32.79
2017-08-28T12:08:30.536Z,32.81
2017-08-28T12:09:40.583Z,32.75
2017-08-28T12:10:50.967Z,32.8
2017-08-28T12:12:01.326Z,33.17
2017-08-28T12:13:11.706Z,33.83
2017-08-28T12:14:21.474Z,34.34
2017-08-28T12:15:31.849Z,34.39
2017-08-28T12:16:42.193Z,34.24
2017-08-28T12:17:52.559Z,34.12
2017-08-28T12:19:02.297Z,33.99
2017-08-28T12:20:12.706Z,33.78
2017-08-28T12:21:23.110Z,33.65
2017-08-28T12:22:33.468Z,33.55
2017-08-28T12:23:43.823Z,33.36
2017-08-28T12:24:54.187Z,33.17
2017-08-28T12:26:04.605Z,33.17
2017-08-28T12:27:14.977Z,33.05
2017-08-28T12:28:24.378Z,32.98
2017-08-28T12:29:34.756Z,32.93
2017-08-28T12:30:46.809Z,32.65
2017-08-28T12:31:57.952Z,32.69
2017-08-28T12:33:08.305Z,32.47
2017-08-28T12:34:18.667Z,32.38
2017-08-28T12:35:29.028Z,32.28
2017-08-28T12:36:39.391Z,32.1
2017-08-28T12:37:49.796Z,31.94
2017-08-28T12:39:00.169Z,31.78
2017-08-28T12:40:10.218Z,31.75
2017-08-28T12:41:20.589Z,31.72
2017-08-28T12:42:30.957Z,31.63
2017-08-28T12:43:41.375Z,31.6
2017-08-28T12:44:51.635Z,31.67
2017-08-28T12:46:02.006Z,31.67
2017-08-28T12:47:12.374Z,31.71
2017-08-28T12:48:22.760Z,31.68
2017-08-28T12:49:32.543Z,31.72
2017-08-28T12:50:42.587Z,31.7
2017-08-28T12:51:52.942Z,31.75
2017-08-28T12:53:04.776Z,31.86
2017-08-28T12:54:14.871Z,31.82
2017-08-28T12:55:25.269Z,31.71
2017-08-28T12:56:35.632Z,31.75
2017-08-28T12:57:45.989Z,31.7
2017-08-28T12:58:56.372Z,31.74
2017-08-28T13:00:06.422Z,31.74
2017-08-28T13:01:16.863Z,31.7
2017-08-28T13:02:27.230Z,31.72
2017-08-28T13:03:37.585Z,31.75
2017-08-28T13:04:47.941Z,31.77
2017-08-28T13:05:58.323Z,31.77
2017-08-28T13:07:08.734Z,31.75
2017-08-28T13:08:18.803Z,31.9
2017-08-28T13:09:28.841Z,31.87
2017-08-28T13:10:39.194Z,31.94
2017-08-28T13:11:49.556Z,32.15
2017-08-28T13:12:59.957Z,32.12
2017-08-28T13:14:10.328Z,32.17
2017-08-28T13:15:22.143Z,32.39
2017-08-28T13:16:32.498Z,32.71
2017-08-28T13:17:42.847Z,32.83
2017-08-28T13:18:53.935Z,33.18
2017-08-28T13:20:04.325Z,33.4
2017-08-28T13:21:14.727Z,33.62
2017-08-28T13:22:25.103Z,33.39
2017-08-28T13:23:35.447Z,33.34
2017-08-28T13:24:45.866Z,33.17
2017-08-28T13:25:56.242Z,33.16
2017-08-28T13:27:06.609Z,33.23
2017-08-28T13:28:16.949Z,33.56
2017-08-28T13:29:27.282Z,33.69
2017-08-28T13:30:37.381Z,33.89
2017-08-28T13:31:47.475Z,33.56
2017-08-28T13:32:57.831Z,33.29
2017-08-28T13:34:07.890Z,33.13
2017-08-28T13:35:18.250Z,33.05
2017-08-28T13:36:28.649Z,33.23
2017-08-28T13:37:39.033Z,32.99
2017-08-28T13:38:49.402Z,32.67
2017-08-28T13:39:59.781Z,32.52
2017-08-28T13:41:10.177Z,32.45
2017-08-28T13:42:20.292Z,32.13
2017-08-28T13:43:30.659Z,31.97
2017-08-28T13:44:43.945Z,31.82
2017-08-28T13:45:53.987Z,31.88
2017-08-28T13:47:04.367Z,31.74
2017-08-28T13:48:14.781Z,31.65
2017-08-28T13:49:25.163Z,31.91
2017-08-28T13:50:35.535Z,32.15
2017-08-28T13:51:45.242Z,32.38
2017-08-28T13:52:55.592Z,32.15
2017-08-28T13:54:05.993Z,31.9
2017-08-28T13:55:16.104Z,31.87
2017-08-28T13:56:26.471Z,31.72
2017-08-28T13:57:36.842Z,31.9
2017-08-28T13:58:46.912Z,32.06
2017-08-28T13:59:57.326Z,32.1
2017-08-28T14:01:07.690Z,32.24
2017-08-28T14:02:18.052Z,32.38
2017-08-28T14:03:28.406Z,32.32
2017-08-28T14:04:38.779Z,32.52
2017-08-28T14:05:49.199Z,32.5
2017-08-28T14:06:59.796Z,32.64
2017-08-28T14:08:09.846Z,32.47
2017-08-28T14:09:20.236Z,32.16
2017-08-28T14:10:30.288Z,32.09
2017-08-28T14:11:40.728Z,31.7
2017-08-28T14:12:51.096Z,31.55
2017-08-28T14:14:01.466Z,31.58
2017-08-28T14:15:11.514Z,31.81
2017-08-28T14:16:21.889Z,31.82
2017-08-28T14:17:32.042Z,31.77
2017-08-28T14:18:42.121Z,31.81
2017-08-28T14:19:52.508Z,31.74
2017-08-28T14:21:02.571Z,31.77
2017-08-28T14:22:12.948Z,31.93
2017-08-28T14:23:23.393Z,31.87
2017-08-28T14:24:33.798Z,31.87
2017-08-28T14:25:44.165Z,31.77
2017-08-28T14:26:54.231Z,31.59
2017-08-28T14:28:04.265Z,31.5
2017-08-28T14:29:14.643Z,31.41
2017-08-28T14:30:25.054Z,31.49
2017-08-28T14:31:35.455Z,31.43
2017-08-28T14:32:45.842Z,31.45
2017-08-28T14:33:55.883Z,31.52
2017-08-28T14:35:06.323Z,31.6
2017-08-28T14:36:16.703Z,31.62
2017-08-28T14:37:27.077Z,31.47
2017-08-28T14:38:37.471Z,31.6
2017-08-28T14:39:47.854Z,31.65
2017-08-28T14:40:58.288Z,31.72
2017-08-28T14:42:08.667Z,31.74
2017-08-28T14:43:19.060Z,31.86
2017-08-28T14:44:29.117Z,31.88
2017-08-28T14:45:39.505Z,31.93
2017-08-28T14:46:49.961Z,31.93
2017-08-28T14:48:00.008Z,31.95
2017-08-28T14:49:10.403Z,32.25
2017-08-28T14:50:20.127Z,32.37
2017-08-28T14:51:30.512Z,32.35
2017-08-28T14:52:40.615Z,32.47
2017-08-28T14:53:50.360Z,32.38
2017-08-28T14:55:00.794Z,32.13
2017-08-28T14:56:10.873Z,31.8
2017-08-28T14:57:21.271Z,31.53
2017-08-28T14:58:31.708Z,31.55
2017-08-28T14:59:42.092Z,31.4
2017-08-28T15:00:52.502Z,31.15
2017-08-28T15:02:02.903Z,31.16
2017-08-28T15:03:13.277Z,31.33
2017-08-28T15:04:23.700Z,31.34
2017-08-28T15:05:34.083Z,31.31
2017-08-28T15:06:44.473Z,31.28
2017-08-28T15:07:54.542Z,31.31
2017-08-28T15:09:04.933Z,31.31
2017-08-28T15:10:15.371Z,31.3
2017-08-28T15:11:25.749Z,31.33
2017-08-28T15:12:36.128Z,31.3
2017-08-28T15:13:46.209Z,31.18
2017-08-28T15:14:56.626Z,30.88
2017-08-28T15:16:07.059Z,30.89
2017-08-28T15:17:17.434Z,30.75
2017-08-28T15:18:27.827Z,30.78
2017-08-28T15:19:37.879Z,30.79
2017-08-28T15:20:48.285Z,30.69
2017-08-28T15:21:58.415Z,30.78
2017-08-28T15:23:08.472Z,30.52
2017-08-28T15:24:18.561Z,30.28
2017-08-28T15:25:28.939Z,30.02
2017-08-28T15:26:39.318Z,29.92
2017-08-28T15:27:49.751Z,29.75
2017-08-28T15:29:00.138Z,29.82
2017-08-28T15:30:10.535Z,30.02
2017-08-28T15:31:20.935Z,30.04
2017-08-28T15:32:32.057Z,30.11
2017-08-28T15:33:42.511Z,30.16
2017-08-28T15:34:52.895Z,30.14
2017-08-28T15:36:03.262Z,30.21
2017-08-28T15:37:26.454Z,30.32
2017-08-28T15:38:36.566Z,30.34
2017-08-28T15:39:46.949Z,30.47